Time;durP1;ratioP1;P1;durP2;ratioP2;P2;SDS_P1;SDS_P2;PMS_P1;PMS_P2;Temp;Humidity;BMP_temperature;BMP_pressure;BME280_temperature;BME280_humidity;BME280_pressure;Samples;Min_cycle;Max_cycle;Signal;HPM_P1;HPM_P2
2022/12/10 00:01:53;;;;;;;29.35;19.83;;;6.60;86.80;;;;;;5054920;28;20033;-14
2022/12/10 00:04:20;;;;;;;30.05;18.73;;;6.60;86.80;;;;;;5055228;28;20037;-15
2022/12/10 00:06:46;;;;;;;29.65;17.35;;;6.60;86.80;;;;;;5054964;28;20025;-12
2022/12/10 00:09:15;;;;;;;29.30;18.88;;;6.60;86.80;;;;;;5055606;28;20056;-17
2022/12/10 00:11:42;;;;;;;34.05;20.55;;;6.70;86.80;;;;;;5055157;28;20116;-17
2022/12/10 00:14:09;;;;;;;33.25;20.17;;;6.60;86.70;;;;;;5054896;28;20067;-15
2022/12/10 00:16:36;;;;;;;30.55;19.30;;;6.60;86.70;;;;;;5054845;28;20029;-14
2022/12/10 00:19:03;;;;;;;28.83;17.08;;;6.60;86.70;;;;;;5036913;28;20053;-15
2022/12/10 00:21:32;;;;;;;33.80;18.20;;;6.50;86.70;;;;;;5054797;28;20032;-15
2022/12/10 00:23:59;;;;;;;39.28;21.40;;;6.50;86.80;;;;;;5054803;28;20025;-16
2022/12/10 00:26:28;;;;;;;35.53;20.13;;;6.50;86.90;;;;;;5036862;28;20035;-16
2022/12/10 00:28:55;;;;;;;35.72;20.13;;;6.50;86.90;;;;;;5054358;28;20111;-15
2022/12/10 00:31:32;;;;;;;32.40;18.15;;;6.60;87.00;;;;;;5054541;28;20541;-15
2022/12/10 00:34:02;;;;;;;32.70;18.38;;;6.60;87.00;;;;;;5054754;28;20108;-14
2022/12/10 00:36:38;;;;;;;36.75;20.08;;;6.60;87.00;;;;;;5054626;28;20025;-10
2022/12/10 00:39:05;;;;;;;35.28;19.27;;;6.60;87.00;;;;;;5054539;28;20389;-16
2022/12/10 00:41:31;;;;;;;35.92;19.77;;;6.70;86.90;;;;;;5054450;28;20029;-14
2022/12/10 00:43:57;;;;;;;36.58;20.25;;;6.70;86.80;;;;;;5054453;28;20072;-11
2022/12/10 00:46:23;;;;;;;40.13;22.80;;;6.60;86.80;;;;;;5054915;28;20021;-12
2022/12/10 00:48:49;;;;;;;40.20;21.98;;;6.60;86.70;;;;;;5054267;28;20116;-16
2022/12/10 00:51:21;;;;;;;43.05;22.40;;;6.60;86.70;;;;;;5053969;28;20056;-13
2022/12/10 00:53:49;;;;;;;44.95;23.92;;;6.50;86.70;;;;;;5054157;28;20037;-12
2022/12/10 00:56:19;;;;;;;41.08;22.55;;;6.50;86.70;;;;;;5054130;28;20021;-13
2022/12/10 00:58:47;;;;;;;34.63;18.98;;;6.40;86.70;;;;;;5053993;28;20057;-15
2022/12/10 01:01:24;;;;;;;36.58;19.75;;;6.40;86.80;;;;;;5054090;28;20017;-15
2022/12/10 01:03:52;;;;;;;43.08;23.17;;;6.40;87.00;;;;;;5054850;28;20515;-16
2022/12/10 01:06:31;;;;;;;42.13;23.00;;;6.40;87.00;;;;;;5036089;28;20090;-13
2022/12/10 01:08:59;;;;;;;37.85;20.00;;;6.50;87.00;;;;;;5053694;28;20591;-13
2022/12/10 01:11:30;;;;;;;38.05;20.10;;;6.40;87.00;;;;;;5054286;28;20025;-14
2022/12/10 01:13:56;;;;;;;39.55;20.90;;;6.40;87.10;;;;;;5052881;28;20033;-13
2022/12/10 01:16:23;;;;;;;46.70;24.02;;;6.40;87.10;;;;;;5054212;28;20025;-13
2022/12/10 01:18:52;;;;;;;42.85;21.77;;;6.40;87.10;;;;;;5053504;28;20033;-12
2022/12/10 01:21:19;;;;;;;44.17;21.50;;;6.40;87.10;;;;;;5053580;28;20033;-12
2022/12/10 01:23:47;;;;;;;40.85;22.35;;;6.40;87.10;;;;;;5053592;28;20017;-14
2022/12/10 01:26:17;;;;;;;38.55;19.83;;;6.40;87.10;;;;;;5053841;28;20033;-16
2022/12/10 01:28:43;;;;;;;35.20;19.90;;;6.40;87.20;;;;;;5053458;28;20028;-13
2022/12/10 01:31:25;;;;;;;45.10;23.50;;;6.30;87.20;;;;;;5053406;28;20028;-15
2022/12/10 01:33:51;;;;;;;44.40;22.55;;;6.30;87.30;;;;;;5053715;28;20112;-13
2022/12/10 01:36:20;;;;;;;40.88;21.95;;;6.30;87.30;;;;;;5053343;28;20108;-15
2022/12/10 01:38:47;;;;;;;40.60;21.23;;;6.30;87.20;;;;;;5053328;28;20028;-15
2022/12/10 01:41:22;;;;;;;38.58;20.83;;;6.30;87.30;;;;;;5053049;28;20036;-16
2022/12/10 01:44:00;;;;;;;29.92;16.23;;;6.20;87.40;;;;;;5053097;28;20086;-14
2022/12/10 01:46:32;;;;;;;30.15;16.08;;;6.30;87.40;;;;;;5053453;28;20021;-12
2022/12/10 01:49:00;;;;;;;36.42;18.77;;;6.30;87.50;;;;;;5052914;28;20511;-13
2022/12/10 01:51:28;;;;;;;35.63;18.10;;;6.30;87.50;;;;;;5053371;28;20219;-12
2022/12/10 01:53:54;;;;;;;38.92;19.73;;;6.40;87.50;;;;;;5052966;28;20029;-17
2022/12/10 01:56:21;;;;;;;39.42;20.70;;;6.40;87.40;;;;;;5053367;28;20027;-16
2022/12/10 01:58:50;;;;;;;38.97;19.90;;;6.40;87.40;;;;;;5052863;28;20091;-13
2022/12/10 02:01:32;;;;;;;36.15;18.80;;;6.40;87.40;;;;;;5053354;28;20122;-12
2022/12/10 02:04:01;;;;;;;41.55;20.98;;;6.40;87.40;;;;;;5053274;28;20025;-15
2022/12/10 02:06:58;;;;;;;36.60;19.08;;;6.40;87.40;;;;;;5052978;28;20071;-16
2022/12/10 02:09:24;;;;;;;34.67;17.42;;;6.50;87.40;;;;;;5052828;28;20063;-17
2022/12/10 02:12:06;;;;;;;31.70;16.23;;;6.50;87.40;;;;;;5053087;28;20126;-17
2022/12/10 02:15:00;;;;;;;38.13;20.27;;;6.50;87.30;;;;;;5052972;28;20037;-17
2022/12/10 02:17:29;;;;;;;35.17;19.17;;;6.50;87.20;;;;;;5052643;28;20074;-16
2022/12/10 02:20:06;;;;;;;45.00;21.65;;;6.50;87.20;;;;;;5052910;28;20508;-16
2022/12/10 02:22:44;;;;;;;39.25;20.77;;;6.50;87.20;;;;;;5052706;28;20021;-16
2022/12/10 02:25:14;;;;;;;42.67;21.05;;;6.50;87.00;;;;;;5052416;28;20059;-17
2022/12/10 02:28:02;;;;;;;32.92;17.52;;;6.50;87.10;;;;;;5052940;28;20050;-14
2022/12/10 02:30:32;;;;;;;37.72;18.45;;;6.60;87.00;;;;;;5052600;28;20476;-17
2022/12/10 02:33:01;;;;;;;41.85;20.25;;;6.60;87.00;;;;;;5052555;28;20044;-16
2022/12/10 02:35:33;;;;;;;45.03;20.90;;;6.60;86.90;;;;;;5052357;28;20103;-17
2022/12/10 02:38:11;;;;;;;51.40;25.13;;;6.60;86.90;;;;;;5053256;28;20032;-16
2022/12/10 02:40:39;;;;;;;50.97;24.08;;;6.60;86.90;;;;;;5052631;28;20045;-17
2022/12/10 02:43:07;;;;;;;44.80;21.98;;;6.60;86.80;;;;;;5052126;28;20033;-16
2022/12/10 02:45:34;;;;;;;45.08;20.27;;;6.60;86.80;;;;;;5052402;28;20029;-16
2022/12/10 02:48:03;;;;;;;43.10;20.42;;;6.50;86.70;;;;;;5052392;28;20075;-15
2022/12/10 02:50:29;;;;;;;52.38;24.85;;;6.50;86.80;;;;;;5052387;28;20025;-15
2022/12/10 02:52:55;;;;;;;47.22;23.90;;;6.50;86.90;;;;;;5051880;28;20049;-16
2022/12/10 02:55:21;;;;;;;46.30;21.85;;;6.50;87.00;;;;;;5052204;28;20036;-16
2022/12/10 02:58:08;;;;;;;42.72;20.05;;;6.40;86.90;;;;;;5052743;28;20369;-13
2022/12/10 03:00:51;;;;;;;38.90;19.33;;;6.40;87.00;;;;;;5052489;28;20031;-17
2022/12/10 03:03:28;;;;;;;45.33;22.75;;;6.40;87.10;;;;;;5052256;28;20061;-14
2022/12/10 03:06:11;;;;;;;37.83;18.75;;;6.40;87.20;;;;;;5052625;28;20041;-14
2022/12/10 03:08:52;;;;;;;47.23;21.67;;;6.40;87.20;;;;;;5052599;28;20041;-15
2022/12/10 03:11:24;;;;;;;47.15;21.95;;;6.50;87.20;;;;;;5052472;28;20544;-14
2022/12/10 03:13:57;;;;;;;42.15;20.60;;;6.50;87.20;;;;;;5051920;28;20065;-16
2022/12/10 03:16:25;;;;;;;49.35;25.05;;;6.50;87.20;;;;;;5052098;28;20025;-17
2022/12/10 03:18:56;;;;;;;45.63;20.67;;;6.50;87.20;;;;;;5051878;28;20025;-15
2022/12/10 03:21:25;;;;;;;46.78;22.35;;;6.40;87.10;;;;;;5052354;28;20139;-16
2022/12/10 03:23:51;;;;;;;49.60;23.45;;;6.40;87.10;;;;;;5051946;28;20020;-14
2022/12/10 03:26:19;;;;;;;51.35;24.13;;;6.40;87.20;;;;;;5051981;28;20025;-16
2022/12/10 03:28:54;;;;;;;49.65;22.38;;;6.40;87.20;;;;;;5051913;28;20033;-14
2022/12/10 03:31:21;;;;;;;42.05;20.25;;;6.40;87.10;;;;;;5052614;28;20220;-15
2022/12/10 03:33:48;;;;;;;50.70;22.77;;;6.30;87.10;;;;;;5052256;28;20036;-17
2022/12/10 03:36:16;;;;;;;46.58;22.83;;;6.30;87.20;;;;;;5052143;28;20497;-15
2022/12/10 03:38:43;;;;;;;48.83;24.63;;;6.30;87.20;;;;;;5054510;28;20035;-15
2022/12/10 03:41:09;;;;;;;44.03;20.70;;;6.30;87.30;;;;;;5055494;28;20100;-15
2022/12/10 03:43:35;;;;;;;44.88;21.00;;;6.20;87.30;;;;;;5055383;28;20113;-16
2022/12/10 03:46:02;;;;;;;45.55;21.08;;;6.20;87.50;;;;;;5055756;28;20013;-17
2022/12/10 03:48:28;;;;;;;49.83;24.13;;;6.20;87.50;;;;;;5055454;28;20029;-16
2022/12/10 03:50:54;;;;;;;49.22;22.80;;;6.30;87.60;;;;;;5055353;28;20035;-17
2022/12/10 03:53:20;;;;;;;37.17;18.98;;;6.30;87.60;;;;;;5055021;28;20527;-15
2022/12/10 03:55:46;;;;;;;38.35;18.60;;;6.20;87.60;;;;;;5055597;28;20103;-15
2022/12/10 03:58:12;;;;;;;43.28;21.60;;;6.30;87.60;;;;;;5055424;28;20029;-15
2022/12/10 04:00:38;;;;;;;44.10;21.30;;;6.30;87.70;;;;;;5055198;28;20105;-16
2022/12/10 04:03:04;;;;;;;48.47;22.13;;;6.40;87.70;;;;;;5055223;28;20190;-16
2022/12/10 04:05:30;;;;;;;46.50;19.83;;;6.30;87.60;;;;;;5055950;28;20481;-16
2022/12/10 04:07:56;;;;;;;45.45;21.80;;;6.30;87.60;;;;;;5055060;28;20029;-15
2022/12/10 04:10:22;;;;;;;51.03;22.33;;;6.30;87.60;;;;;;5055048;28;20017;-16
2022/12/10 04:16:26;;;;;;;44.25;22.02;;;6.30;87.60;;;;;;5055174;28;20025;-16
2022/12/10 04:18:23;;;;;;;46.92;22.00;;;6.30;87.60;;;;;;5055308;28;20624;-16
2022/12/10 04:29:06;;;;;;;45.22;21.65;;;6.20;87.60;;;;;;5054761;28;20440;-17
2022/12/10 04:31:32;;;;;;;39.55;19.23;;;6.20;87.70;;;;;;5054679;28;20036;-15
2022/12/10 04:33:58;;;;;;;41.58;19.48;;;6.20;87.70;;;;;;5054510;28;20041;-17
2022/12/10 04:36:24;;;;;;;45.65;21.35;;;6.30;87.70;;;;;;5054533;28;20056;-16
2022/12/10 04:38:50;;;;;;;51.28;22.95;;;6.30;87.80;;;;;;5054311;28;20075;-16
2022/12/10 04:41:16;;;;;;;37.53;18.67;;;6.30;87.80;;;;;;5054774;28;20076;-15
2022/12/10 04:43:42;;;;;;;47.47;22.85;;;6.40;87.80;;;;;;5054400;28;20433;-17
2022/12/10 04:46:11;;;;;;;44.40;20.75;;;6.40;87.80;;;;;;5054857;28;20071;-14
2022/12/10 04:48:37;;;;;;;47.65;23.52;;;6.40;87.70;;;;;;5035737;28;20025;-16
2022/12/10 04:51:04;;;;;;;48.03;23.83;;;6.40;87.70;;;;;;5053403;28;20392;-14
2022/12/10 04:53:30;;;;;;;51.00;23.63;;;6.40;87.60;;;;;;5054172;28;20025;-16
2022/12/10 04:55:56;;;;;;;48.75;24.08;;;6.40;87.60;;;;;;5054116;28;20021;-15
2022/12/10 04:58:22;;;;;;;50.28;22.48;;;6.30;87.50;;;;;;5054265;28;20048;-16
2022/12/10 05:00:48;;;;;;;47.30;23.02;;;6.30;87.60;;;;;;5053983;28;20392;-17
2022/12/10 05:03:14;;;;;;;51.17;25.08;;;6.30;87.60;;;;;;5053961;28;20532;-17
2022/12/10 05:05:40;;;;;;;50.35;24.42;;;6.30;87.70;;;;;;5053971;28;20117;-15
2022/12/10 05:08:06;;;;;;;46.15;23.83;;;6.30;87.70;;;;;;5053874;28;20040;-15
2022/12/10 05:10:34;;;;;;;50.45;25.67;;;6.30;87.70;;;;;;5054211;28;20025;-17
2022/12/10 05:13:00;;;;;;;42.50;21.25;;;6.20;87.60;;;;;;5035680;28;20025;-14
2022/12/10 05:15:26;;;;;;;47.40;24.23;;;6.20;87.70;;;;;;5053668;28;20025;-17
2022/12/10 05:17:53;;;;;;;51.15;24.10;;;6.20;87.70;;;;;;5053746;28;20074;-16
2022/12/10 05:20:19;;;;;;;51.42;25.08;;;6.20;87.70;;;;;;5054054;28;20029;-16
2022/12/10 05:25:29;;;;;;;50.65;25.48;;;6.20;87.70;;;;;;5053987;28;20043;-17
2022/12/10 05:27:55;;;;;;;53.53;26.67;;;6.20;87.70;;;;;;5035646;28;20489;-17
2022/12/10 05:30:21;;;;;;;52.10;25.42;;;6.20;87.70;;;;;;5054270;28;20034;-16
2022/12/10 05:32:47;;;;;;;54.53;26.90;;;6.10;87.80;;;;;;5053350;28;20021;-18
2022/12/10 05:35:13;;;;;;;48.50;26.45;;;6.20;87.80;;;;;;5053383;28;20036;-17
2022/12/10 05:37:39;;;;;;;53.53;26.42;;;6.20;87.90;;;;;;5053398;28;20116;-16
2022/12/10 05:40:06;;;;;;;47.40;24.58;;;6.20;87.90;;;;;;5053578;28;20388;-16
2022/12/10 05:42:32;;;;;;;47.30;23.00;;;6.20;87.90;;;;;;5053124;28;20056;-15
2022/12/10 05:44:58;;;;;;;50.80;25.60;;;6.20;87.90;;;;;;5053174;28;20056;-16
2022/12/10 05:47:24;;;;;;;37.85;20.70;;;6.20;87.90;;;;;;5053164;28;20051;-16
2022/12/10 05:49:50;;;;;;;42.30;20.75;;;6.20;88.00;;;;;;5053444;28;20388;-16
2022/12/10 05:52:16;;;;;;;47.40;23.27;;;6.30;88.00;;;;;;5053016;28;20524;-16
2022/12/10 05:54:42;;;;;;;39.38;19.58;;;6.30;88.10;;;;;;5053203;28;20393;-16
2022/12/10 05:57:09;;;;;;;38.13;20.63;;;6.40;88.10;;;;;;5052727;28;20032;-16
2022/12/10 05:59:35;;;;;;;40.88;21.58;;;6.40;88.10;;;;;;5035670;28;20103;-17
2022/12/10 06:02:01;;;;;;;41.47;20.58;;;6.40;88.00;;;;;;5052568;28;20415;-15
2022/12/10 06:04:27;;;;;;;36.75;21.00;;;6.50;88.00;;;;;;5052893;28;20099;-16
2022/12/10 06:06:53;;;;;;;36.10;19.38;;;6.50;88.00;;;;;;5052693;28;20025;-17
2022/12/10 06:09:19;;;;;;;42.53;21.90;;;6.50;88.00;;;;;;5052798;28;20031;-14
2022/12/10 06:11:45;;;;;;;42.45;22.50;;;6.50;88.00;;;;;;5052802;28;20120;-16
2022/12/10 06:14:11;;;;;;;38.28;20.98;;;6.60;87.90;;;;;;5052501;28;20036;-16
2022/12/10 06:16:40;;;;;;;28.90;16.88;;;6.60;87.90;;;;;;5053113;28;20021;-17
2022/12/10 06:19:06;;;;;;;30.77;16.85;;;6.60;87.90;;;;;;5052763;28;20029;-16
2022/12/10 06:21:32;;;;;;;28.10;15.77;;;6.60;87.90;;;;;;5052571;28;20071;-15
2022/12/10 06:23:58;;;;;;;31.17;17.17;;;6.70;88.00;;;;;;5052894;28;20052;-16
2022/12/10 06:26:25;;;;;;;29.67;17.80;;;6.70;87.90;;;;;;5052571;28;20477;-15
2022/12/10 06:28:53;;;;;;;38.22;21.02;;;6.80;87.90;;;;;;5034364;28;20371;-14
2022/12/10 06:31:19;;;;;;;37.60;20.10;;;6.80;87.90;;;;;;5052832;28;20170;-14
2022/12/10 06:33:47;;;;;;;41.15;20.83;;;6.80;87.80;;;;;;5052423;28;20374;-13
2022/12/10 06:36:15;;;;;;;40.75;21.73;;;6.80;87.80;;;;;;5052586;28;20409;-15
2022/12/10 06:38:42;;;;;;;31.52;17.70;;;6.80;87.80;;;;;;5052365;28;20025;-15
2022/12/10 06:41:10;;;;;;;32.45;18.92;;;6.80;87.70;;;;;;5052202;28;20159;-17
2022/12/10 06:43:36;;;;;;;25.90;15.82;;;6.80;87.70;;;;;;5034422;28;20039;-17
2022/12/10 06:46:15;;;;;;;39.22;20.27;;;6.90;87.80;;;;;;5052343;28;20036;-15
2022/12/10 06:48:42;;;;;;;34.75;19.38;;;6.90;87.80;;;;;;5052292;28;20025;-15
2022/12/10 06:51:09;;;;;;;37.05;20.10;;;6.90;87.90;;;;;;5051940;28;20032;-15
2022/12/10 06:53:36;;;;;;;28.60;15.88;;;6.90;87.80;;;;;;5052636;28;20035;-17
2022/12/10 06:56:04;;;;;;;31.70;19.17;;;6.90;87.70;;;;;;5052972;28;20532;-16
2022/12/10 06:58:32;;;;;;;27.00;16.42;;;6.90;87.70;;;;;;5052199;28;20029;-15
2022/12/10 07:01:06;;;;;;;26.20;14.48;;;6.90;87.80;;;;;;5052050;28;20029;-15
2022/12/10 07:03:32;;;;;;;37.25;19.45;;;7.00;87.80;;;;;;5052256;28;20060;-15
2022/12/10 07:05:59;;;;;;;29.77;17.35;;;7.00;87.80;;;;;;5052194;28;20021;-17
2022/12/10 07:08:25;;;;;;;29.13;16.65;;;7.10;87.80;;;;;;5052166;28;20039;-15
2022/12/10 07:10:51;;;;;;;26.15;16.17;;;7.00;87.80;;;;;;5051998;28;20032;-16
2022/12/10 07:13:17;;;;;;;32.33;18.98;;;7.10;87.70;;;;;;5054035;28;20037;-16
2022/12/10 07:15:43;;;;;;;31.00;17.08;;;7.10;87.80;;;;;;5056004;28;20055;-15
2022/12/10 07:18:09;;;;;;;36.35;21.75;;;7.10;87.70;;;;;;5056006;28;20495;-16
2022/12/10 07:20:35;;;;;;;34.22;20.70;;;7.20;87.60;;;;;;5055965;28;20040;-17
2022/12/10 07:23:01;;;;;;;27.45;16.40;;;7.20;87.50;;;;;;5055828;28;20381;-16
2022/12/10 07:25:28;;;;;;;33.72;19.08;;;7.10;87.40;;;;;;5055719;28;20036;-16
2022/12/10 07:27:54;;;;;;;41.95;23.98;;;7.10;87.40;;;;;;5056162;28;20073;-16
2022/12/10 07:30:20;;;;;;;30.35;17.42;;;7.10;87.40;;;;;;5055813;28;20477;-18
2022/12/10 07:32:46;;;;;;;29.85;17.85;;;7.10;87.40;;;;;;5055811;28;20381;-16
2022/12/10 07:35:12;;;;;;;37.10;21.60;;;7.10;87.50;;;;;;5055353;28;20041;-16
2022/12/10 07:37:38;;;;;;;35.08;19.55;;;7.10;87.50;;;;;;5055841;28;20021;-15
2022/12/10 07:40:05;;;;;;;38.63;21.17;;;7.20;87.50;;;;;;5055889;28;20033;-16
2022/12/10 07:42:31;;;;;;;34.88;20.98;;;7.20;87.50;;;;;;5037525;28;20171;-15
2022/12/10 07:44:56;;;;;;;34.20;20.42;;;7.20;87.50;;;;;;5055349;28;20029;-16
2022/12/10 07:47:23;;;;;;;41.13;23.23;;;7.20;87.40;;;;;;5037571;28;20037;-16
2022/12/10 07:49:49;;;;;;;26.05;16.45;;;7.20;87.30;;;;;;5056078;28;20095;-17
2022/12/10 07:52:15;;;;;;;30.35;18.30;;;7.20;87.40;;;;;;5055137;28;20382;-16
2022/12/10 07:54:41;;;;;;;37.65;21.73;;;7.20;87.40;;;;;;5055547;28;20037;-17
2022/12/10 07:57:07;;;;;;;45.25;26.55;;;7.30;87.50;;;;;;5055182;28;20982;-16
2022/12/10 07:59:33;;;;;;;41.55;23.80;;;7.40;87.60;;;;;;5055090;28;20385;-17
2022/12/10 08:02:32;;;;;;;41.20;22.48;;;7.40;87.50;;;;;;5049085;28;20936;-11
2022/12/10 08:04:58;;;;;;;55.92;29.67;;;7.40;87.40;;;;;;5049648;28;20202;-12
2022/12/10 08:07:24;;;;;;;57.53;27.70;;;7.50;87.40;;;;;;5050272;28;20017;-12
2022/12/10 08:09:50;;;;;;;70.57;32.78;;;7.50;87.30;;;;;;5049887;28;20032;-12
2022/12/10 08:12:16;;;;;;;59.58;27.08;;;7.50;87.20;;;;;;5049971;28;20071;-13
2022/12/10 08:14:41;;;;;;;50.42;27.52;;;7.40;87.20;;;;;;5049712;28;20037;-12
2022/12/10 08:17:07;;;;;;;40.60;23.20;;;7.40;87.20;;;;;;5049744;28;20115;-13
2022/12/10 08:19:33;;;;;;;34.22;18.80;;;7.50;87.30;;;;;;5050000;28;20021;-12
2022/12/10 08:21:59;;;;;;;35.63;21.08;;;7.50;87.30;;;;;;5031848;28;20447;-13
2022/12/10 08:24:24;;;;;;;34.78;20.35;;;7.50;87.30;;;;;;5049515;28;20025;-12
2022/12/10 08:26:50;;;;;;;32.90;20.23;;;7.50;87.30;;;;;;5031471;28;20035;-12
2022/12/10 08:29:16;;;;;;;35.13;21.42;;;7.50;87.30;;;;;;5049348;28;20367;-13
2022/12/10 08:31:42;;;;;;;39.03;23.30;;;7.60;87.30;;;;;;5049755;28;20021;-13
2022/12/10 08:34:16;;;;;;;36.47;23.10;;;7.60;87.10;;;;;;5049264;28;20397;-13
2022/12/10 08:36:42;;;;;;;41.80;26.42;;;7.50;87.00;;;;;;5049511;28;20103;-13
2022/12/10 08:39:10;;;;;;;35.35;23.00;;;7.50;86.90;;;;;;5049066;28;20037;-12
2022/12/10 08:41:36;;;;;;;35.85;22.27;;;7.40;86.80;;;;;;5049289;28;20374;-13
2022/12/10 08:44:02;;;;;;;34.50;23.48;;;7.40;86.90;;;;;;5049053;28;20021;-12
2022/12/10 08:46:28;;;;;;;35.80;22.98;;;7.40;86.90;;;;;;5049133;28;20052;-13
2022/12/10 08:48:54;;;;;;;52.30;27.75;;;7.40;87.00;;;;;;5048819;28;20025;-12
2022/12/10 08:51:21;;;;;;;42.80;25.75;;;7.30;87.30;;;;;;5049008;28;20417;-13
2022/12/10 08:53:48;;;;;;;37.70;23.20;;;7.30;87.50;;;;;;5048992;28;20025;-13
2022/12/10 08:56:15;;;;;;;40.47;21.38;;;7.30;87.50;;;;;;5048996;28;20027;-12
2022/12/10 08:58:41;;;;;;;38.88;23.17;;;7.30;87.40;;;;;;5049009;28;20382;-12
2022/12/10 09:01:11;;;;;;;39.70;23.65;;;7.40;87.40;;;;;;5030571;28;20132;-12
2022/12/10 09:03:38;;;;;;;31.83;19.52;;;7.40;87.40;;;;;;5049028;28;20048;-13
2022/12/10 09:06:06;;;;;;;32.95;19.05;;;7.40;87.40;;;;;;5048819;28;20039;-13
2022/12/10 09:08:33;;;;;;;29.77;19.13;;;7.50;87.50;;;;;;5014940;28;20021;-12
2022/12/10 09:11:05;;;;;;;25.55;16.73;;;7.50;87.50;;;;;;5048862;28;20097;-12
2022/12/10 09:13:31;;;;;;;28.25;18.77;;;7.60;87.60;;;;;;5037202;28;20026;-13
2022/12/10 09:15:57;;;;;;;30.67;18.67;;;7.60;87.60;;;;;;5035535;28;20099;-14
2022/12/10 09:18:23;;;;;;;28.65;18.35;;;7.70;87.70;;;;;;5035249;28;20052;-11
2022/12/10 09:20:48;;;;;;;33.95;19.05;;;7.80;87.70;;;;;;5034883;28;20555;-13
2022/12/10 09:23:14;;;;;;;28.02;18.67;;;7.90;87.80;;;;;;5035476;28;20037;-11
2022/12/10 09:25:40;;;;;;;26.40;16.45;;;7.90;87.70;;;;;;5035734;28;20025;-12
2022/12/10 09:28:06;;;;;;;32.47;21.10;;;8.00;87.70;;;;;;5035271;28;20035;-12
2022/12/10 09:30:32;;;;;;;24.73;16.15;;;8.00;87.60;;;;;;5035073;28;20080;-12
2022/12/10 09:32:58;;;;;;;31.25;19.73;;;8.10;87.50;;;;;;5035098;28;20108;-13
2022/12/10 09:35:24;;;;;;;37.55;23.38;;;8.20;87.60;;;;;;5035013;28;20485;-12
2022/12/10 09:37:50;;;;;;;26.08;16.80;;;8.20;87.50;;;;;;5035044;28;20036;-12
2022/12/10 09:40:17;;;;;;;31.10;21.33;;;8.20;87.40;;;;;;5017078;28;20041;-12
2022/12/10 09:43:05;;;;;;;27.80;17.38;;;8.20;87.40;;;;;;5017297;28;20022;-13
2022/12/10 09:45:58;;;;;;;26.27;16.35;;;8.20;87.30;;;;;;5034867;28;20034;-13
2022/12/10 09:48:37;;;;;;;28.75;18.17;;;8.30;87.20;;;;;;5034975;28;20033;-13
2022/12/10 09:51:12;;;;;;;26.25;16.50;;;8.30;87.30;;;;;;5034539;28;20033;-12
2022/12/10 09:53:39;;;;;;;24.80;14.40;;;8.30;87.30;;;;;;5034655;28;20032;-13
2022/12/10 09:56:10;;;;;;;25.90;18.17;;;8.40;87.30;;;;;;5017127;28;20036;-13
2022/12/10 09:58:37;;;;;;;26.02;18.02;;;8.50;87.10;;;;;;5034752;28;20013;-13
2022/12/10 10:01:06;;;;;;;28.85;17.60;;;8.60;87.00;;;;;;5034295;28;20060;-12
2022/12/10 10:03:37;;;;;;;26.13;16.75;;;8.60;87.00;;;;;;5034401;28;20026;-12
2022/12/10 10:06:04;;;;;;;29.15;16.98;;;8.70;87.00;;;;;;5034720;28;20036;-12
2022/12/10 10:08:36;;;;;;;29.42;17.92;;;8.90;86.90;;;;;;5016724;28;20036;-12
2022/12/10 10:11:03;;;;;;;25.80;16.52;;;9.00;86.60;;;;;;5034132;28;20032;-11
2022/12/10 10:13:34;;;;;;;33.75;22.73;;;9.20;86.50;;;;;;5034498;28;20107;-12
2022/12/10 10:16:50;;;;;;;28.70;19.13;;;9.30;86.50;;;;;;5034287;28;20522;-12
2022/12/10 10:19:21;;;;;;;22.58;14.18;;;9.40;86.20;;;;;;4954083;29;20038;-12
2022/12/10 10:21:49;;;;;;;22.67;14.68;;;9.40;86.10;;;;;;4954067;29;20048;-13
2022/12/10 10:24:25;;;;;;;20.42;13.70;;;9.50;85.90;;;;;;4953206;28;20624;-12
2022/12/10 10:26:56;;;;;;;19.75;12.50;;;9.50;85.90;;;;;;4953951;29;20031;-11
2022/12/10 10:29:26;;;;;;;32.47;21.08;;;9.50;86.00;;;;;;4953986;29;20027;-11
2022/12/10 10:32:18;;;;;;;32.47;17.80;;;9.50;85.70;;;;;;4953900;29;20039;-11
2022/12/10 10:34:47;;;;;;;25.55;18.02;;;9.60;85.80;;;;;;4953928;29;20468;-11
2022/12/10 10:37:20;;;;;;;24.30;17.50;;;9.60;85.80;;;;;;4953748;29;20407;-13
2022/12/10 10:39:48;;;;;;;22.95;15.48;;;9.60;85.60;;;;;;4953719;29;20038;-11
2022/12/10 10:42:40;;;;;;;20.52;14.57;;;9.50;85.40;;;;;;4953547;29;20122;-11
2022/12/10 10:45:39;;;;;;;17.92;13.32;;;9.50;85.50;;;;;;4952889;29;20455;-12
2022/12/10 10:48:14;;;;;;;16.92;12.27;;;9.50;85.60;;;;;;4951219;29;20078;-12
2022/12/10 10:50:44;;;;;;;26.58;15.05;;;9.60;85.70;;;;;;5022494;28;20519;-12
2022/12/10 10:53:30;;;;;;;22.90;14.48;;;9.60;85.90;;;;;;5033606;28;20028;-11
2022/12/10 10:55:59;;;;;;;18.48;12.15;;;9.70;85.70;;;;;;5033557;28;20033;-12
2022/12/10 10:58:26;;;;;;;20.02;12.35;;;9.80;85.70;;;;;;5033763;28;20025;-11
2022/12/10 11:00:56;;;;;;;17.10;11.95;;;9.90;85.60;;;;;;5033361;28;20091;-11
2022/12/10 11:03:22;;;;;;;17.85;11.57;;;10.00;85.50;;;;;;5033870;28;20033;-12
2022/12/10 11:05:48;;;;;;;16.40;11.00;;;10.00;85.10;;;;;;5033277;28;20029;-12
2022/12/10 11:08:18;;;;;;;15.60;10.60;;;10.00;85.20;;;;;;5033236;28;20072;-12
2022/12/10 11:10:55;;;;;;;15.20;10.43;;;10.10;85.20;;;;;;5033184;28;20052;-13
2022/12/10 11:13:29;;;;;;;16.67;11.60;;;10.20;84.90;;;;;;5033097;28;20037;-12
2022/12/10 11:15:58;;;;;;;16.95;12.05;;;10.30;85.20;;;;;;5033190;28;20152;-12
2022/12/10 11:18:30;;;;;;;18.13;12.63;;;10.50;85.20;;;;;;5033418;28;20022;-12
2022/12/10 11:21:01;;;;;;;18.83;12.38;;;10.60;85.10;;;;;;5032908;28;20485;-12
2022/12/10 11:23:30;;;;;;;15.40;10.10;;;10.80;84.90;;;;;;5033087;28;20033;-11
2022/12/10 11:26:11;;;;;;;16.45;11.18;;;10.90;84.80;;;;;;5033078;28;20492;-12
2022/12/10 11:28:58;;;;;;;15.82;10.45;;;11.20;84.50;;;;;;5032843;28;20037;-13
2022/12/10 11:31:33;;;;;;;17.88;12.35;;;11.40;83.60;;;;;;5032865;28;20025;-12
2022/12/10 11:34:07;;;;;;;13.43;8.85;;;11.60;83.60;;;;;;5032798;28;20033;-11
2022/12/10 11:37:02;;;;;;;15.82;10.30;;;11.70;83.20;;;;;;5032525;28;20363;-12
2022/12/10 11:39:44;;;;;;;15.57;10.30;;;11.90;83.10;;;;;;5033153;28;20458;-11
2022/12/10 11:42:54;;;;;;;13.68;9.63;;;12.00;82.30;;;;;;5032741;28;20033;-11
2022/12/10 11:45:39;;;;;;;15.73;11.05;;;12.10;82.20;;;;;;5033151;28;20021;-12
2022/12/10 11:48:23;;;;;;;16.15;10.75;;;12.20;82.20;;;;;;5032890;28;20022;-12
2022/12/10 11:51:00;;;;;;;17.65;12.00;;;12.10;82.10;;;;;;5032644;28;20029;-11
2022/12/10 11:53:45;;;;;;;15.75;10.50;;;12.20;82.10;;;;;;5014932;28;20049;-11
2022/12/10 11:56:37;;;;;;;15.45;10.48;;;12.10;82.00;;;;;;5014901;28;20032;-12
2022/12/10 11:59:27;;;;;;;15.38;10.65;;;12.10;82.10;;;;;;5032567;28;20025;-12
2022/12/10 12:02:02;;;;;;;15.70;10.45;;;12.20;82.10;;;;;;5032233;28;20049;-13
2022/12/10 12:04:38;;;;;;;16.27;11.55;;;12.20;81.90;;;;;;5032724;28;20039;-11
2022/12/10 12:07:14;;;;;;;18.02;12.07;;;12.10;81.90;;;;;;5032190;28;20083;-12
2022/12/10 12:10:25;;;;;;;18.02;11.93;;;12.20;81.80;;;;;;5032948;28;20363;-12
2022/12/10 12:13:09;;;;;;;16.27;10.13;;;12.10;81.30;;;;;;5002015;28;20482;-12
2022/12/10 12:15:48;;;;;;;17.52;11.45;;;12.10;81.70;;;;;;5033235;28;20076;-11
2022/12/10 12:18:27;;;;;;;15.75;10.75;;;12.10;82.00;;;;;;5033006;28;20017;-13
2022/12/10 12:21:01;;;;;;;17.73;11.05;;;12.20;82.00;;;;;;5032029;28;20041;-11
2022/12/10 12:23:57;;;;;;;19.40;12.40;;;12.20;82.00;;;;;;5032863;28;20079;-12
2022/12/10 12:26:49;;;;;;;12.20;8.40;;;12.30;80.90;;;;;;5032459;28;20032;-12
2022/12/10 12:29:30;;;;;;;13.60;9.48;;;12.30;81.50;;;;;;5031901;28;20033;-11
2022/12/10 12:32:31;;;;;;;16.02;10.77;;;12.30;81.50;;;;;;5032301;28;20311;-12
2022/12/10 12:35:04;;;;;;;15.82;9.85;;;12.30;81.60;;;;;;5031921;28;20029;-12
2022/12/10 12:37:50;;;;;;;16.77;11.10;;;12.20;81.40;;;;;;5032517;28;20041;-12
2022/12/10 12:40:35;;;;;;;16.48;11.95;;;12.10;81.60;;;;;;5032434;28;20056;-12
2022/12/10 12:43:08;;;;;;;17.58;11.52;;;12.00;81.70;;;;;;5031870;28;20033;-11
2022/12/10 12:45:42;;;;;;;17.65;11.32;;;11.90;81.90;;;;;;5032454;28;20424;-12
2022/12/10 12:48:32;;;;;;;14.18;9.90;;;11.90;81.90;;;;;;5033981;28;20037;-12
2022/12/10 12:51:10;;;;;;;17.80;12.05;;;11.90;81.90;;;;;;5035760;28;20022;-12
2022/12/10 12:53:36;;;;;;;18.25;12.45;;;11.80;81.80;;;;;;5036192;28;20037;-12
2022/12/10 12:56:09;;;;;;;17.02;11.05;;;11.80;82.10;;;;;;5035653;28;20508;-12
2022/12/10 12:58:47;;;;;;;13.77;10.10;;;11.80;82.20;;;;;;5035646;28;20017;-11
2022/12/10 13:01:20;;;;;;;18.05;11.30;;;11.80;82.30;;;;;;5035267;28;20581;-11
2022/12/10 13:03:49;;;;;;;17.15;12.27;;;11.90;82.40;;;;;;5036045;28;20017;-12
2022/12/10 13:06:22;;;;;;;17.45;12.90;;;11.90;82.20;;;;;;5035502;28;20039;-12
2022/12/10 13:09:08;;;;;;;17.38;12.15;;;11.90;82.00;;;;;;5035403;28;20117;-13